Time;durP1;ratioP1;P1;durP2;ratioP2;P2;SDS_P1;SDS_P2;PMS_P1;PMS_P2;Temp;Humidity;BMP_temperature;BMP_pressure;BME280_temperature;BME280_humidity;BME280_pressure;Samples;Min_cycle;Max_cycle;Signal;HPM_P1;HPM_P2
2022/12/13 00:15:57;;;;;;;23.33;10.00;;;;;;;;;;6261276;22;2280657;-72
2022/12/13 00:18:35;;;;;;;22.08;9.07;;;;;;;;;;6115899;23;20274;-72
2022/12/13 00:21:04;;;;;;;18.25;7.60;;;;;;;;;;6041134;23;20152;-71
2022/12/13 00:23:43;;;;;;;22.02;7.95;;;;;;;;;;5969802;23;20081;-71
2022/12/13 00:47:21;;;;;;;18.52;5.60;;;;;;;;;;5294656;22;22246655;-72
2022/12/13 00:49:58;;;;;;;15.18;6.07;;;;;;;;;;6078074;23;20020;-71
2022/12/13 00:52:33;;;;;;;19.48;6.50;;;;;;;;;;6080256;23;20137;-72
2022/12/13 01:18:48;;;;;;;20.88;9.27;;;;;;;;;;5088288;22;25858632;-71
2022/12/13 01:21:27;;;;;;;19.25;7.22;;;;;;;;;;6037669;23;20037;-71
2022/12/13 01:28:52;;;;;;;17.80;7.07;;;;;;;;;;5985857;23;20105;-70
2022/12/13 01:31:23;;;;;;;17.27;7.07;;;;;;;;;;6047104;23;20066;-70
2022/12/13 01:36:33;;;;;;;18.52;7.13;;;;;;;;;;5934242;23;20022;-70
2022/12/13 01:39:02;;;;;;;18.05;7.22;;;;;;;;;;6086520;23;20030;-70
2022/12/13 01:41:29;;;;;;;20.48;7.72;;;;;;;;;;6046533;23;20098;-70
2022/12/13 01:43:59;;;;;;;18.98;7.18;;;;;;;;;;6053013;23;20029;-69
2022/12/13 01:46:44;;;;;;;18.92;7.78;;;;;;;;;;6061653;23;20050;-70
2022/12/13 01:49:21;;;;;;;21.60;7.90;;;;;;;;;;6051608;23;20025;-69
2022/12/13 01:52:00;;;;;;;22.63;7.47;;;;;;;;;;6077234;23;20026;-69
2022/12/13 01:57:05;;;;;;;19.60;7.00;;;;;;;;;;6074894;23;20028;-69
2022/12/13 01:59:34;;;;;;;18.50;7.03;;;;;;;;;;6091672;23;20268;-68
2022/12/13 02:02:01;;;;;;;19.27;7.78;;;;;;;;;;6106459;23;20151;-68
2022/12/13 02:04:30;;;;;;;16.92;7.35;;;;;;;;;;6142457;23;20072;-69
2022/12/13 02:06:58;;;;;;;20.10;7.35;;;;;;;;;;6133223;23;20100;-69
2022/12/13 02:09:25;;;;;;;18.70;7.57;;;;;;;;;;6089784;23;20036;-69
2022/12/13 02:11:58;;;;;;;17.25;7.03;;;;;;;;;;6093740;23;20033;-69
2022/12/13 02:14:27;;;;;;;16.38;7.20;;;;;;;;;;6098155;23;20032;-69
2022/12/13 02:17:00;;;;;;;20.27;7.57;;;;;;;;;;6066006;23;20130;-69
2022/12/13 02:19:45;;;;;;;17.52;7.05;;;;;;;;;;6167082;23;20024;-69
2022/12/13 02:22:23;;;;;;;16.75;6.68;;;;;;;;;;6119231;23;20083;-69
2022/12/13 02:24:59;;;;;;;17.83;6.73;;;;;;;;;;6107234;23;20049;-69
2022/12/13 02:27:41;;;;;;;16.67;7.00;;;;;;;;;;6086287;23;20397;-68
2022/12/13 02:30:18;;;;;;;17.88;6.80;;;;;;;;;;6054291;23;20108;-68
2022/12/13 02:32:51;;;;;;;16.30;6.75;;;;;;;;;;6057099;23;20052;-68
2022/12/13 02:35:21;;;;;;;20.05;7.20;;;;;;;;;;6057985;23;20069;-69
2022/12/13 02:37:50;;;;;;;19.70;6.82;;;;;;;;;;6093065;23;21341;-69
2022/12/13 02:40:22;;;;;;;16.15;6.78;;;;;;;;;;6142667;23;20039;-69
2022/12/13 02:42:52;;;;;;;19.02;7.75;;;;;;;;;;6088415;23;20027;-69
2022/12/13 02:45:29;;;;;;;18.52;7.50;;;;;;;;;;6065954;23;20033;-68
2022/12/13 02:47:57;;;;;;;16.35;6.63;;;;;;;;;;6146219;23;20035;-69
2022/12/13 02:50:28;;;;;;;19.58;7.07;;;;;;;;;;6152778;23;20121;-68
2022/12/13 02:52:56;;;;;;;16.73;6.55;;;;;;;;;;6118533;23;20036;-68
2022/12/13 02:55:27;;;;;;;20.10;6.78;;;;;;;;;;6068325;23;20021;-68
2022/12/13 02:57:54;;;;;;;17.95;7.22;;;;;;;;;;6065018;23;20029;-68
2022/12/13 03:00:37;;;;;;;19.73;7.32;;;;;;;;;;6093992;23;20025;-71
2022/12/13 03:03:21;;;;;;;18.52;6.88;;;;;;;;;;6007280;23;20025;-70
2022/12/13 03:08:56;;;;;;;14.27;6.18;;;;;;;;;;6044512;23;20037;-70
2022/12/13 03:13:51;;;;;;;19.77;7.50;;;;;;;;;;5956062;23;20052;-71
2022/12/13 03:16:23;;;;;;;19.92;7.03;;;;;;;;;;6090905;23;20075;-70
2022/12/13 03:18:53;;;;;;;17.45;7.22;;;;;;;;;;6098154;23;20111;-70
2022/12/13 03:21:27;;;;;;;15.70;7.28;;;;;;;;;;6039024;23;20029;-68
2022/12/13 03:24:01;;;;;;;18.92;7.43;;;;;;;;;;6117159;23;20032;-67
2022/12/13 03:26:29;;;;;;;14.55;6.63;;;;;;;;;;6100250;23;20028;-69
2022/12/13 03:28:55;;;;;;;13.63;6.23;;;;;;;;;;6142314;23;20020;-67
2022/12/13 03:31:36;;;;;;;18.05;7.07;;;;;;;;;;6113614;23;20299;-67
2022/12/13 03:34:04;;;;;;;22.85;6.45;;;;;;;;;;6179204;23;20032;-68
2022/12/13 03:36:33;;;;;;;16.40;5.97;;;;;;;;;;6112346;23;20022;-68
2022/12/13 03:39:02;;;;;;;19.77;7.32;;;;;;;;;;6059803;23;20048;-68
2022/12/13 03:41:31;;;;;;;18.10;6.28;;;;;;;;;;6083070;23;20033;-68
2022/12/13 03:44:04;;;;;;;13.40;5.88;;;;;;;;;;6136445;23;20029;-68
2022/12/13 03:46:32;;;;;;;18.33;6.22;;;;;;;;;;6151158;23;20073;-68
2022/12/13 03:49:06;;;;;;;14.20;6.13;;;;;;;;;;6136640;23;20023;-68
2022/12/13 03:51:40;;;;;;;16.88;6.38;;;;;;;;;;6081185;23;20076;-68
2022/12/13 03:54:24;;;;;;;18.40;6.80;;;;;;;;;;6086790;23;20095;-68
2022/12/13 03:56:57;;;;;;;17.10;5.93;;;;;;;;;;6089436;23;20029;-69
2022/12/13 03:59:29;;;;;;;16.00;5.57;;;;;;;;;;6100161;23;20024;-69
2022/12/13 04:02:05;;;;;;;15.00;6.53;;;;;;;;;;6065017;23;20037;-68
2022/12/13 04:04:31;;;;;;;17.77;6.18;;;;;;;;;;6111002;23;20131;-68
2022/12/13 04:06:58;;;;;;;19.20;6.28;;;;;;;;;;6163289;23;20032;-67
2022/12/13 04:09:25;;;;;;;15.15;6.03;;;;;;;;;;6160759;23;20092;-68
2022/12/13 04:14:37;;;;;;;15.90;6.88;;;;;;;;;;6207566;23;20025;-67
2022/12/13 04:17:06;;;;;;;15.60;6.20;;;;;;;;;;6162936;23;20026;-67
2022/12/13 04:19:46;;;;;;;18.50;6.90;;;;;;;;;;6084820;23;20069;-67
2022/12/13 04:22:15;;;;;;;18.90;6.95;;;;;;;;;;6068775;23;20160;-67
2022/12/13 04:24:47;;;;;;;21.45;7.03;;;;;;;;;;6047053;23;20030;-68
2022/12/13 04:27:15;;;;;;;14.25;5.72;;;;;;;;;;6095775;23;20017;-67
2022/12/13 04:29:43;;;;;;;14.98;6.18;;;;;;;;;;6137068;23;20116;-67
2022/12/13 04:32:09;;;;;;;17.33;6.63;;;;;;;;;;6118808;23;20025;-68
2022/12/13 04:34:36;;;;;;;13.88;6.30;;;;;;;;;;6160991;23;20024;-67
2022/12/13 04:37:05;;;;;;;17.63;6.13;;;;;;;;;;6123357;23;20024;-67
2022/12/13 04:39:42;;;;;;;15.85;6.07;;;;;;;;;;6155715;23;20024;-67
2022/12/13 04:42:13;;;;;;;18.80;6.65;;;;;;;;;;6058734;23;20025;-67
2022/12/13 04:44:48;;;;;;;13.55;5.50;;;;;;;;;;6091569;23;20193;-67
2022/12/13 04:47:17;;;;;;;19.55;6.30;;;;;;;;;;6133820;23;20084;-68
2022/12/13 04:49:48;;;;;;;18.10;6.38;;;;;;;;;;6103749;23;21034;-68
2022/12/13 04:52:15;;;;;;;15.27;6.15;;;;;;;;;;6083687;23;20496;-67
2022/12/13 04:54:41;;;;;;;14.30;5.40;;;;;;;;;;6132108;23;20102;-68
2022/12/13 04:57:17;;;;;;;16.55;5.90;;;;;;;;;;6103437;23;20031;-68
2022/12/13 04:59:56;;;;;;;18.13;6.63;;;;;;;;;;6112554;23;20255;-68
2022/12/13 05:02:27;;;;;;;14.25;5.97;;;;;;;;;;6046952;23;20037;-67
2022/12/13 05:04:56;;;;;;;21.90;7.18;;;;;;;;;;6038119;23;20029;-67
2022/12/13 05:07:36;;;;;;;18.60;6.47;;;;;;;;;;6109907;23;20021;-69
2022/12/13 05:10:06;;;;;;;16.75;6.35;;;;;;;;;;6084906;23;20067;-68
2022/12/13 05:12:37;;;;;;;19.70;6.55;;;;;;;;;;6032081;23;20025;-68
2022/12/13 05:15:08;;;;;;;15.07;5.93;;;;;;;;;;5971018;23;20033;-67
2022/12/13 05:17:35;;;;;;;19.92;8.07;;;;;;;;;;6035737;23;20103;-68
2022/12/13 05:20:01;;;;;;;17.27;6.47;;;;;;;;;;6178960;23;20024;-69
2022/12/13 05:22:28;;;;;;;17.33;6.30;;;;;;;;;;6170848;23;20033;-67
2022/12/13 05:24:57;;;;;;;15.85;5.90;;;;;;;;;;6128769;23;20104;-67
2022/12/13 05:27:31;;;;;;;16.20;6.30;;;;;;;;;;6054658;23;20100;-66
2022/12/13 05:30:00;;;;;;;20.02;6.65;;;;;;;;;;6104907;23;21030;-67
2022/12/13 05:32:34;;;;;;;19.30;6.38;;;;;;;;;;6047607;23;20101;-67
2022/12/13 05:35:09;;;;;;;16.00;6.22;;;;;;;;;;6096803;22;20032;-67
2022/12/13 05:37:40;;;;;;;17.70;6.05;;;;;;;;;;6117397;23;20024;-68
2022/12/13 05:40:09;;;;;;;13.95;5.40;;;;;;;;;;6151705;23;20031;-67
2022/12/13 05:42:44;;;;;;;14.80;5.22;;;;;;;;;;6096844;23;20053;-67
2022/12/13 05:45:22;;;;;;;17.10;6.47;;;;;;;;;;6033388;23;20038;-67
2022/12/13 05:47:57;;;;;;;15.98;6.25;;;;;;;;;;6065362;23;20133;-68
2022/12/13 05:50:45;;;;;;;;;;;;;;;;;;;;;
2022/12/13 05:53:14;;;;;;;20.35;6.43;;;;;;;;;;6099837;23;20080;-67
2022/12/13 05:55:42;;;;;;;16.35;6.32;;;;;;;;;;6021008;23;20025;-68
2022/12/13 05:58:14;;;;;;;16.70;5.68;;;;;;;;;;6118417;23;20025;-67
2022/12/13 06:03:11;;;;;;;15.02;6.43;;;;;;;;;;6023000;23;20025;-67
2022/12/13 06:05:43;;;;;;;16.73;5.82;;;;;;;;;;6111742;23;20029;-67
2022/12/13 06:08:10;;;;;;;14.60;5.85;;;;;;;;;;6128384;23;20065;-69
2022/12/13 06:10:37;;;;;;;18.20;6.22;;;;;;;;;;6089238;23;20028;-69
2022/12/13 06:13:05;;;;;;;15.85;5.60;;;;;;;;;;5999453;23;20100;-70
2022/12/13 06:15:32;;;;;;;;;;;;;;;;;;6094374;23;20044;-70
2022/12/13 06:17:59;;;;;;;16.98;5.53;;;;;;;;;;6139414;23;20023;-69
2022/12/13 06:20:36;;;;;;;16.52;5.90;;;;;;;;;;6164942;23;20100;-69
2022/12/13 06:23:02;;;;;;;17.48;5.70;;;;;;;;;;6108791;23;20029;-68
2022/12/13 06:25:29;;;;;;;14.80;6.05;;;;;;;;;;6117278;23;20029;-66
2022/12/13 06:28:02;;;;;;;22.17;6.40;;;;;;;;;;6098504;23;20107;-68
2022/12/13 06:30:30;;;;;;;16.50;6.15;;;;;;;;;;6125468;23;20077;-67
2022/12/13 06:32:58;;;;;;;18.63;5.95;;;;;;;;;;6071255;23;20106;-67
2022/12/13 06:35:29;;;;;;;15.90;6.55;;;;;;;;;;6064765;23;20022;-67
2022/12/13 06:38:01;;;;;;;20.73;6.78;;;;;;;;;;6115174;23;20031;-68
2022/12/13 06:40:27;;;;;;;19.42;6.85;;;;;;;;;;6078069;23;20268;-67
2022/12/13 06:43:05;;;;;;;18.77;6.85;;;;;;;;;;6054842;23;20480;-66
2022/12/13 06:45:43;;;;;;;14.88;5.68;;;;;;;;;;6164413;23;20036;-67
2022/12/13 06:48:12;;;;;;;16.83;6.30;;;;;;;;;;6189675;23;20029;-67
2022/12/13 06:50:41;;;;;;;15.52;6.40;;;;;;;;;;6150360;23;20262;-66
2022/12/13 06:53:13;;;;;;;19.65;7.20;;;;;;;;;;6137348;23;20020;-67
2022/12/13 06:55:40;;;;;;;15.48;6.13;;;;;;;;;;6165051;23;20021;-66
2022/12/13 06:58:09;;;;;;;16.63;6.65;;;;;;;;;;6139157;23;20092;-67
2022/12/13 07:00:36;;;;;;;19.13;6.82;;;;;;;;;;6125841;23;20047;-68
2022/12/13 07:03:02;;;;;;;17.23;7.13;;;;;;;;;;6106745;23;20052;-67
2022/12/13 07:05:31;;;;;;;19.13;7.10;;;;;;;;;;6153109;23;20025;-67
2022/12/13 07:08:01;;;;;;;18.05;6.75;;;;;;;;;;6138864;23;20021;-67
2022/12/13 07:10:29;;;;;;;19.17;6.55;;;;;;;;;;6138834;23;20033;-67
2022/12/13 07:12:55;;;;;;;19.48;6.53;;;;;;;;;;6131461;23;20029;-66
2022/12/13 07:15:24;;;;;;;18.35;6.10;;;;;;;;;;6145103;23;20051;-68
2022/12/13 07:17:52;;;;;;;19.48;6.28;;;;;;;;;;6122762;23;20035;-68
2022/12/13 07:20:24;;;;;;;22.42;6.75;;;;;;;;;;6125324;23;20032;-67
2022/12/13 07:22:55;;;;;;;16.27;6.13;;;;;;;;;;6082592;23;20136;-67
2022/12/13 07:25:24;;;;;;;;;;;;;;;;;;6149309;23;20052;-69
2022/12/13 07:28:06;;;;;;;18.40;5.90;;;;;;;;;;6104947;23;20310;-68
2022/12/13 07:30:34;;;;;;;16.92;6.05;;;;;;;;;;6176768;23;20028;-68
2022/12/13 07:33:03;;;;;;;15.45;5.70;;;;;;;;;;6087358;23;20033;-69
2022/12/13 07:35:31;;;;;;;16.77;6.35;;;;;;;;;;6085715;23;20025;-68
2022/12/13 07:37:59;;;;;;;19.88;6.90;;;;;;;;;;6132170;23;20095;-66
2022/12/13 07:40:26;;;;;;;19.60;7.13;;;;;;;;;;6140963;23;20079;-68
2022/12/13 07:42:56;;;;;;;18.80;6.03;;;;;;;;;;6123847;23;20070;-69
2022/12/13 07:45:28;;;;;;;18.80;6.72;;;;;;;;;;6084402;23;20029;-70
2022/12/13 07:47:57;;;;;;;16.60;6.18;;;;;;;;;;6131062;23;20117;-69
2022/12/13 07:50:24;;;;;;;17.02;6.60;;;;;;;;;;6150119;23;20029;-68
2022/12/13 07:52:51;;;;;;;17.98;7.22;;;;;;;;;;6122038;23;20031;-67
2022/12/13 07:55:18;;;;;;;18.60;6.78;;;;;;;;;;6115613;23;20020;-69
2022/12/13 07:57:44;;;;;;;18.23;6.68;;;;;;;;;;6120523;23;20055;-67
2022/12/13 08:00:14;;;;;;;18.02;6.82;;;;;;;;;;6154321;23;20128;-67
2022/12/13 08:02:47;;;;;;;18.65;7.03;;;;;;;;;;6166975;23;20040;-69
2022/12/13 08:05:14;;;;;;;18.88;6.70;;;;;;;;;;6128824;23;20036;-66
2022/12/13 08:07:44;;;;;;;21.35;7.25;;;;;;;;;;6126376;23;20024;-69
2022/12/13 08:10:13;;;;;;;20.15;6.82;;;;;;;;;;6134939;23;20055;-67
2022/12/13 08:12:41;;;;;;;17.10;7.00;;;;;;;;;;6137587;23;20046;-67
2022/12/13 08:15:08;;;;;;;19.00;7.18;;;;;;;;;;6125318;23;20024;-70
2022/12/13 08:17:35;;;;;;;18.38;6.82;;;;;;;;;;6129555;23;20039;-68
2022/12/13 08:20:20;;;;;;;18.30;6.90;;;;;;;;;;6167909;23;20070;-68
2022/12/13 08:22:56;;;;;;;19.73;6.93;;;;;;;;;;6150230;23;20081;-66
2022/12/13 08:25:26;;;;;;;17.65;6.63;;;;;;;;;;6113771;23;20139;-67
2022/12/13 08:27:53;;;;;;;20.35;6.82;;;;;;;;;;6103456;23;20029;-69
2022/12/13 08:30:19;;;;;;;16.35;6.53;;;;;;;;;;6182115;23;20023;-67
2022/12/13 08:32:49;;;;;;;17.77;7.30;;;;;;;;;;6156526;23;20039;-65
2022/12/13 08:35:30;;;;;;;16.13;6.30;;;;;;;;;;6114246;23;20033;-66
2022/12/13 08:37:56;;;;;;;22.92;7.50;;;;;;;;;;6135374;23;20116;-69
2022/12/13 08:40:29;;;;;;;18.17;7.15;;;;;;;;;;6165520;23;20088;-65
2022/12/13 08:42:58;;;;;;;20.05;7.47;;;;;;;;;;6126246;23;20025;-69
2022/12/13 08:45:25;;;;;;;15.52;6.85;;;;;;;;;;6084923;23;20037;-68
2022/12/13 08:47:52;;;;;;;19.60;7.67;;;;;;;;;;6151508;23;20035;-66
2022/12/13 08:50:20;;;;;;;21.33;7.13;;;;;;;;;;6140511;23;20043;-65
2022/12/13 08:52:49;;;;;;;17.85;7.40;;;;;;;;;;6146474;23;20029;-66
2022/12/13 08:55:16;;;;;;;23.08;7.40;;;;;;;;;;6123459;23;20039;-65
2022/12/13 08:57:44;;;;;;;16.30;7.10;;;;;;;;;;6191295;23;20035;-65
2022/12/13 09:00:12;;;;;;;18.45;7.38;;;;;;;;;;6149457;23;20028;-68
2022/12/13 09:02:40;;;;;;;21.20;7.35;;;;;;;;;;6174073;23;20059;-68
2022/12/13 09:05:11;;;;;;;19.60;7.15;;;;;;;;;;6137497;23;20091;-65
2022/12/13 09:07:41;;;;;;;23.20;7.82;;;;;;;;;;6118126;23;20029;-68
2022/12/13 09:10:08;;;;;;;15.75;6.78;;;;;;;;;;6136349;23;20021;-69
2022/12/13 09:12:36;;;;;;;18.23;7.43;;;;;;;;;;6144555;23;20135;-67
2022/12/13 09:15:08;;;;;;;23.55;7.05;;;;;;;;;;6181426;23;20047;-67
2022/12/13 09:17:34;;;;;;;17.70;6.85;;;;;;;;;;6126093;23;20028;-65
2022/12/13 09:20:03;;;;;;;19.77;7.22;;;;;;;;;;6162615;23;20021;-67
2022/12/13 09:22:32;;;;;;;22.00;6.78;;;;;;;;;;6141428;23;20021;-69
2022/12/13 09:25:02;;;;;;;20.70;7.03;;;;;;;;;;6132142;23;20032;-66
2022/12/13 09:27:29;;;;;;;19.35;7.57;;;;;;;;;;6118413;23;20025;-66
2022/12/13 09:29:56;;;;;;;17.88;7.00;;;;;;;;;;6125170;23;20021;-71
2022/12/13 09:32:23;;;;;;;20.35;6.85;;;;;;;;;;6137766;23;20029;-68
2022/12/13 09:34:50;;;;;;;22.35;7.20;;;;;;;;;;6186629;23;20029;-65
2022/12/13 09:37:16;;;;;;;17.73;7.18;;;;;;;;;;6103052;23;20027;-70
2022/12/13 09:39:49;;;;;;;19.67;7.70;;;;;;;;;;6140631;23;20020;-63
2022/12/13 09:42:20;;;;;;;20.50;7.45;;;;;;;;;;6140965;23;20025;-67
2022/12/13 09:44:51;;;;;;;18.42;7.05;;;;;;;;;;6119379;23;20029;-68
2022/12/13 09:47:24;;;;;;;19.95;7.25;;;;;;;;;;6156440;23;20059;-68
2022/12/13 09:49:51;;;;;;;18.20;7.18;;;;;;;;;;6091220;23;20025;-66
2022/12/13 09:52:25;;;;;;;19.55;6.97;;;;;;;;;;6133615;23;20033;-68
2022/12/13 09:55:47;;;;;;;20.45;6.47;;;;;;;;;;6089159;23;20037;-69
2022/12/13 09:58:18;;;;;;;19.05;6.82;;;;;;;;;;6125401;23;20025;-70
2022/12/13 10:03:40;;;;;;;19.65;6.85;;;;;;;;;;6170811;23;20021;-71
2022/12/13 10:06:15;;;;;;;20.73;7.57;;;;;;;;;;6106732;23;20028;-67
2022/12/13 10:08:55;;;;;;;22.05;6.72;;;;;;;;;;6112977;23;20100;-69
2022/12/13 10:15:13;;;;;;;17.45;6.25;;;;;;;;;;6050049;23;20213;-70
2022/12/13 10:20:23;;;;;;;18.73;6.68;;;;;;;;;;6025583;23;20026;-70
2022/12/13 10:22:49;;;;;;;;;;;;;;;;;;6073025;23;20037;-71
2022/12/13 10:25:17;;;;;;;16.27;6.15;;;;;;;;;;6108471;23;19930;-70
2022/12/13 10:27:53;;;;;;;20.10;7.05;;;;;;;;;;6137378;23;20053;-69
2022/12/13 10:30:40;;;;;;;26.27;7.65;;;;;;;;;;6097668;23;20029;-69
2022/12/13 10:33:21;;;;;;;24.80;7.18;;;;;;;;;;6163148;23;20047;-69
2022/12/13 10:36:01;;;;;;;23.45;7.20;;;;;;;;;;6104166;23;20029;-67
2022/12/13 10:38:30;;;;;;;22.85;8.30;;;;;;;;;;6173762;23;20033;-69
2022/12/13 10:40:59;;;;;;;21.52;7.65;;;;;;;;;;6116539;23;20036;-71
2022/12/13 10:43:31;;;;;;;22.02;7.97;;;;;;;;;;6140071;23;20108;-71
2022/12/13 10:46:01;;;;;;;18.30;7.00;;;;;;;;;;6110326;23;20047;-67
2022/12/13 10:48:34;;;;;;;19.80;7.18;;;;;;;;;;6148162;23;20071;-66
2022/12/13 10:51:01;;;;;;;21.25;7.78;;;;;;;;;;6158184;23;20052;-70
2022/12/13 10:53:34;;;;;;;20.37;6.93;;;;;;;;;;6111057;23;20113;-67
2022/12/13 10:56:04;;;;;;;20.90;7.55;;;;;;;;;;6134614;23;20029;-66
2022/12/13 10:58:34;;;;;;;21.77;7.60;;;;;;;;;;6129085;23;20032;-66
2022/12/13 11:01:10;;;;;;;20.67;8.27;;;;;;;;;;6130798;23;20025;-67
2022/12/13 11:03:36;;;;;;;23.05;8.07;;;;;;;;;;6126835;23;20021;-68
2022/12/13 11:06:05;;;;;;;20.38;8.15;;;;;;;;;;6132728;23;20090;-74
2022/12/13 11:08:31;;;;;;;23.05;7.30;;;;;;;;;;6095896;23;20028;-71
2022/12/13 11:10:59;;;;;;;20.15;8.15;;;;;;;;;;6167896;23;20369;-67
2022/12/13 11:13:31;;;;;;;19.58;7.40;;;;;;;;;;6139091;23;20047;-70
2022/12/13 11:15:58;;;;;;;22.20;7.78;;;;;;;;;;6137378;23;20426;-68
2022/12/13 11:18:32;;;;;;;23.98;8.40;;;;;;;;;;6139508;23;20033;-72
2022/12/13 11:21:02;;;;;;;28.30;8.80;;;;;;;;;;6148127;23;20053;-71
2022/12/13 11:23:35;;;;;;;21.83;8.68;;;;;;;;;;6133609;23;20104;-69
2022/12/13 11:26:08;;;;;;;23.95;8.75;;;;;;;;;;6155985;23;20023;-69
2022/12/13 11:28:54;;;;;;;22.55;7.85;;;;;;;;;;6142134;23;20029;-70
2022/12/13 11:31:30;;;;;;;20.33;7.72;;;;;;;;;;6136996;23;20029;-72
2022/12/13 11:34:03;;;;;;;;;;;;;;;;;;6137828;23;20033;-68
2022/12/13 11:36:38;;;;;;;20.60;7.32;;;;;;;;;;6154979;23;19951;-70
2022/12/13 11:39:15;;;;;;;26.83;8.43;;;;;;;;;;6111997;23;20028;-68
2022/12/13 11:41:45;;;;;;;22.52;8.27;;;;;;;;;;6152365;23;20086;-71
2022/12/13 11:44:18;;;;;;;23.85;8.70;;;;;;;;;;6114927;23;20027;-68
2022/12/13 11:46:46;;;;;;;21.05;7.57;;;;;;;;;;6133961;23;20093;-69
2022/12/13 11:49:16;;;;;;;21.13;7.25;;;;;;;;;;6157952;23;20025;-69
2022/12/13 11:51:48;;;;;;;20.88;8.73;;;;;;;;;;6155748;23;20239;-67
2022/12/13 11:54:17;;;;;;;21.40;7.70;;;;;;;;;;6169167;23;20032;-70
2022/12/13 11:56:47;;;;;;;28.15;8.75;;;;;;;;;;6073453;23;20028;-70
2022/12/13 11:59:21;;;;;;;24.48;8.88;;;;;;;;;;6175860;23;20035;-71
2022/12/13 12:01:52;;;;;;;21.92;8.07;;;;;;;;;;6100444;23;20053;-64
2022/12/13 12:04:21;;;;;;;22.17;8.48;;;;;;;;;;6142925;23;20024;-66
2022/12/13 12:06:51;;;;;;;25.23;8.68;;;;;;;;;;6143108;23;20051;-63
2022/12/13 12:09:19;;;;;;;23.27;9.20;;;;;;;;;;6164979;23;20119;-65
2022/12/13 12:11:53;;;;;;;25.58;8.60;;;;;;;;;;6135507;23;20031;-68
2022/12/13 12:14:22;;;;;;;21.60;8.85;;;;;;;;;;6201863;23;20036;-69
2022/12/13 12:16:51;;;;;;;22.52;9.07;;;;;;;;;;6163822;23;20034;-66
2022/12/13 12:19:19;;;;;;;24.00;8.07;;;;;;;;;;6162997;23;20067;-67
2022/12/13 12:21:56;;;;;;;21.92;8.27;;;;;;;;;;6142456;23;20024;-68
2022/12/13 12:24:29;;;;;;;18.80;8.25;;;;;;;;;;6136182;23;20033;-65
2022/12/13 12:26:58;;;;;;;23.88;9.10;;;;;;;;;;6148651;23;20025;-67
2022/12/13 12:29:45;;;;;;;28.88;9.25;;;;;;;;;;6120122;23;20112;-70
2022/12/13 12:32:22;;;;;;;25.50;7.50;;;;;;;;;;6140935;23;20024;-64
2022/12/13 12:34:53;;;;;;;24.95;8.88;;;;;;;;;;6103738;23;20043;-68
2022/12/13 12:37:29;;;;;;;24.95;9.50;;;;;;;;;;6119549;23;20041;-65
2022/12/13 12:40:07;;;;;;;23.00;8.52;;;;;;;;;;6150205;23;20025;-68
2022/12/13 12:42:42;;;;;;;26.30;8.73;;;;;;;;;;6099815;23;20136;-64
2022/12/13 12:45:19;;;;;;;24.83;9.38;;;;;;;;;;6108017;23;20033;-66
2022/12/13 12:47:49;;;;;;;22.05;8.52;;;;;;;;;;6104638;23;20347;-65
2022/12/13 12:50:25;;;;;;;25.50;8.68;;;;;;;;;;6112739;23;20029;-68
2022/12/13 12:52:59;;;;;;;26.75;9.93;;;;;;;;;;6119569;23;20063;-69
2022/12/13 12:55:30;;;;;;;23.52;8.57;;;;;;;;;;6105430;23;20172;-68
2022/12/13 12:58:05;;;;;;;22.38;8.70;;;;;;;;;;6122547;23;20059;-68
2022/12/13 13:00:36;;;;;;;27.13;8.98;;;;;;;;;;6137083;23;20042;-67
2022/12/13 13:03:08;;;;;;;23.35;9.10;;;;;;;;;;6100276;23;20088;-65
2022/12/13 13:05:47;;;;;;;26.73;9.45;;;;;;;;;;6040016;23;20033;-66
2022/12/13 13:08:18;;;;;;;25.35;9.30;;;;;;;;;;6092393;23;20035;-67
2022/12/13 13:10:45;;;;;;;22.48;9.30;;;;;;;;;;6097574;23;20033;-64
2022/12/13 13:13:27;;;;;;;29.15;9.75;;;;;;;;;;6125848;23;20041;-70
2022/12/13 13:16:00;;;;;;;27.58;9.05;;;;;;;;;;6070099;23;20076;-69
2022/12/13 13:18:49;;;;;;;27.27;9.52;;;;;;;;;;6098914;23;20150;-70
2022/12/13 13:21:40;;;;;;;27.13;9.35;;;;;;;;;;6111177;23;20104;-68
2022/12/13 13:24:14;;;;;;;22.20;9.20;;;;;;;;;;6124842;23;20036;-71
2022/12/13 13:26:44;;;;;;;21.80;8.52;;;;;;;;;;6123948;23;20024;-71
2022/12/13 13:29:35;;;;;;;26.33;8.93;;;;;;;;;;6096758;23;20031;-64
2022/12/13 13:32:03;;;;;;;27.38;8.45;;;;;;;;;;6147758;23;20020;-68
2022/12/13 13:34:31;;;;;;;23.55;8.73;;;;;;;;;;6066115;23;20061;-70
2022/12/13 13:36:58;;;;;;;25.83;9.43;;;;;;;;;;6074254;23;20037;-72
2022/12/13 13:42:59;;;;;;;19.65;7.53;;;;;;;;;;6052702;23;20058;-68
2022/12/13 13:45:30;;;;;;;23.65;8.88;;;;;;;;;;6134594;23;20047;-66
2022/12/13 13:48:11;;;;;;;24.02;9.30;;;;;;;;;;6122090;23;20032;-66
2022/12/13 13:50:55;;;;;;;24.55;9.43;;;;;;;;;;6197715;23;20028;-69
2022/12/13 13:53:39;;;;;;;23.83;9.32;;;;;;;;;;6133226;23;20058;-69
2022/12/13 13:56:11;;;;;;;23.35;9.35;;;;;;;;;;6112242;23;20036;-67
2022/12/13 13:58:59;;;;;;;25.40;9.20;;;;;;;;;;6138305;23;20156;-71
2022/12/13 14:01:47;;;;;;;22.05;8.88;;;;;;;;;;6134765;23;20028;-70
2022/12/13 14:04:34;;;;;;;25.60;8.85;;;;;;;;;;6149185;23;20036;-68
2022/12/13 14:07:25;;;;;;;24.65;8.50;;;;;;;;;;6057406;23;20036;-68
2022/12/13 14:10:07;;;;;;;23.42;8.52;;;;;;;;;;6044123;23;20036;-66
2022/12/13 14:12:45;;;;;;;27.05;9.43;;;;;;;;;;6123057;23;20025;-65
2022/12/13 14:15:33;;;;;;;25.35;8.82;;;;;;;;;;6131878;23;20028;-67
2022/12/13 14:18:21;;;;;;;20.02;8.35;;;;;;;;;;6175124;23;20029;-65
2022/12/13 14:20:54;;;;;;;20.00;8.30;;;;;;;;;;6145487;23;20124;-66
2022/12/13 14:23:26;;;;;;;25.60;8.60;;;;;;;;;;6160863;23;20104;-66
2022/12/13 14:25:59;;;;;;;23.67;9.35;;;;;;;;;;6113636;23;20033;-67
2022/12/13 14:28:45;;;;;;;23.75;8.15;;;;;;;;;;6170936;23;20040;-67
2022/12/13 14:31:14;;;;;;;24.88;9.45;;;;;;;;;;6147348;23;20025;-67
2022/12/13 14:33:44;;;;;;;24.27;8.88;;;;;;;;;;6112308;23;20059;-69
2022/12/13 14:36:16;;;;;;;22.63;8.68;;;;;;;;;;6121882;23;20048;-69
2022/12/13 14:38:42;;;;;;;28.95;9.32;;;;;;;;;;6176634;23;20028;-69
2022/12/13 14:41:16;;;;;;;25.65;8.77;;;;;;;;;;6140407;23;20150;-67
2022/12/13 14:43:48;;;;;;;20.73;8.73;;;;;;;;;;6113810;23;20024;-68
2022/12/13 14:46:16;;;;;;;23.83;9.70;;;;;;;;;;6152510;23;20051;-66
2022/12/13 14:48:52;;;;;;;22.42;8.57;;;;;;;;;;6102298;23;20029;-70
2022/12/13 14:51:32;;;;;;;23.73;8.27;;;;;;;;;;6173941;23;20071;-68
2022/12/13 14:54:00;;;;;;;23.73;8.90;;;;;;;;;;6163052;23;20038;-66
2022/12/13 14:56:28;;;;;;;25.25;8.95;;;;;;;;;;6138983;23;20036;-68
2022/12/13 14:58:55;;;;;;;23.15;8.43;;;;;;;;;;6146885;23;20088;-67
2022/12/13 15:01:32;;;;;;;26.92;9.48;;;;;;;;;;6142114;23;20023;-70
2022/12/13 15:04:23;;;;;;;22.70;9.00;;;;;;;;;;6129722;23;20079;-68
2022/12/13 15:06:57;;;;;;;21.20;8.45;;;;;;;;;;6083624;23;20115;-66
2022/12/13 15:09:27;;;;;;;23.83;8.43;;;;;;;;;;6141092;23;20059;-69
2022/12/13 15:11:55;;;;;;;19.52;8.00;;;;;;;;;;6159466;23;20036;-66
2022/12/13 15:14:22;;;;;;;28.40;9.18;;;;;;;;;;6200715;23;20032;-69
2022/12/13 15:17:06;;;;;;;25.85;9.27;;;;;;;;;;6160489;23;20256;-67
2022/12/13 15:19:43;;;;;;;24.45;8.80;;;;;;;;;;6120146;23;20033;-70
2022/12/13 15:22:14;;;;;;;22.83;8.60;;;;;;;;;;6113064;23;20021;-68
2022/12/13 15:24:45;;;;;;;23.10;8.52;;;;;;;;;;6112548;23;20387;-67
2022/12/13 15:27:13;;;;;;;26.13;8.95;;;;;;;;;;6094800;23;20059;-69
2022/12/13 15:29:40;;;;;;;22.23;8.38;;;;;;;;;;6107248;23;20075;-68
2022/12/13 15:32:12;;;;;;;30.08;8.73;;;;;;;;;;6147354;23;20025;-67
2022/12/13 15:34:49;;;;;;;20.98;8.75;;;;;;;;;;6121510;23;20198;-67
2022/12/13 15:37:17;;;;;;;20.92;9.40;;;;;;;;;;6067057;23;20048;-66
2022/12/13 15:39:46;;;;;;;21.23;8.38;;;;;;;;;;6138620;23;20052;-66
2022/12/13 15:42:15;;;;;;;21.27;8.27;;;;;;;;;;6104731;23;20021;-65
2022/12/13 15:44:48;;;;;;;23.88;8.70;;;;;;;;;;6102771;23;20121;-68
2022/12/13 15:47:16;;;;;;;26.63;9.25;;;;;;;;;;6090484;23;20052;-68
2022/12/13 15:49:49;;;;;;;21.58;8.45;;;;;;;;;;6126827;23;20029;-69
2022/12/13 15:52:30;;;;;;;24.42;8.63;;;;;;;;;;6167319;23;20095;-68
2022/12/13 15:54:57;;;;;;;22.95;8.00;;;;;;;;;;6119858;23;20024;-66
2022/12/13 15:57:27;;;;;;;22.63;9.00;;;;;;;;;;6130479;23;20025;-69
2022/12/13 16:00:09;;;;;;;25.63;8.65;;;;;;;;;;6122065;23;20096;-69
2022/12/13 16:02:43;;;;;;;21.05;8.23;;;;;;;;;;6109106;23;20033;-68
2022/12/13 16:05:19;;;;;;;23.90;8.70;;;;;;;;;;6084228;23;20024;-67
2022/12/13 16:07:49;;;;;;;20.00;8.38;;;;;;;;;;6110146;23;20017;-68
2022/12/13 16:10:17;;;;;;;22.30;8.05;;;;;;;;;;6114908;23;20071;-68
2022/12/13 16:12:46;;;;;;;21.40;8.23;;;;;;;;;;6111128;23;20175;-67
2022/12/13 16:15:12;;;;;;;;;;;;;;;;;;6062395;23;20112;-69
2022/12/13 16:17:40;;;;;;;16.98;6.82;;;;;;;;;;6121439;23;19919;-70
2022/12/13 16:20:11;;;;;;;23.75;9.15;;;;;;;;;;6124631;23;20109;-69
2022/12/13 16:22:39;;;;;;;25.20;8.77;;;;;;;;;;6114984;23;20025;-68
2022/12/13 16:25:11;;;;;;;22.75;8.57;;;;;;;;;;6086819;23;20029;-67
2022/12/13 16:27:38;;;;;;;24.50;8.80;;;;;;;;;;6126978;23;20020;-67
2022/12/13 16:30:10;;;;;;;26.92;8.63;;;;;;;;;;6119139;23;20021;-66
2022/12/13 16:32:37;;;;;;;25.30;8.32;;;;;;;;;;6140296;23;20025;-65
2022/12/13 16:35:04;;;;;;;22.83;8.73;;;;;;;;;;6077215;23;20025;-66